sensor_id;sensor_type;location;lat;lon;timestamp;pressure;altitude;pressure_sealevel;temperature;humidity
10824;BME280;39116;59.332;18.034;2023-03-14T00:00:50;96794.75;;;5.42;100.00
10824;BME280;39116;59.332;18.034;2023-03-14T00:03:12;96790.44;;;5.43;100.00
10824;BME280;39116;59.332;18.034;2023-03-14T00:05:34;96794.69;;;5.44;100.00
10824;BME280;39116;59.332;18.034;2023-03-14T00:07:56;96793.09;;;5.40;100.00
10824;BME280;39116;59.332;18.034;2023-03-14T00:10:18;96777.53;;;5.43;100.00
10824;BME280;39116;59.332;18.034;2023-03-14T00:12:40;96785.03;;;5.49;100.00
10824;BME280;39116;59.332;18.034;2023-03-14T00:15:04;96790.19;;;5.49;100.00
10824;BME280;39116;59.332;18.034;2023-03-14T00:17:27;96791.31;;;5.42;100.00
10824;BME280;39116;59.332;18.034;2023-03-14T00:19:49;96798.44;;;5.35;100.00
10824;BME280;39116;59.332;18.034;2023-03-14T00:22:14;96796.41;;;5.43;100.00
10824;BME280;39116;59.332;18.034;2023-03-14T00:24:35;96801.44;;;5.48;100.00
10824;BME280;39116;59.332;18.034;2023-03-14T00:26:57;96792.72;;;5.50;100.00
10824;BME280;39116;59.332;18.034;2023-03-14T00:29:19;96792.13;;;5.44;100.00
10824;BME280;39116;59.332;18.034;2023-03-14T00:31:43;96793.69;;;5.48;100.00
10824;BME280;39116;59.332;18.034;2023-03-14T00:34:04;96787.78;;;5.44;100.00
10824;BME280;39116;59.332;18.034;2023-03-14T00:36:26;96798.22;;;5.41;100.00
10824;BME280;39116;59.332;18.034;2023-03-14T00:38:50;96795.53;;;5.44;100.00
10824;BME280;39116;59.332;18.034;2023-03-14T00:41:14;96784.84;;;5.55;100.00
10824;BME280;39116;59.332;18.034;2023-03-14T00:43:36;96788.53;;;5.48;100.00
10824;BME280;39116;59.332;18.034;2023-03-14T00:45:58;96768.53;;;5.54;100.00
10824;BME280;39116;59.332;18.034;2023-03-14T00:48:21;96779.69;;;5.55;100.00
10824;BME280;39116;59.332;18.034;2023-03-14T00:50:43;96789.31;;;5.50;100.00
10824;BME280;39116;59.332;18.034;2023-03-14T00:53:05;96784.16;;;5.50;100.00
10824;BME280;39116;59.332;18.034;2023-03-14T00:55:27;96788.31;;;5.54;100.00
10824;BME280;39116;59.332;18.034;2023-03-14T00:57:49;96791.56;;;5.59;100.00
10824;BME280;39116;59.332;18.034;2023-03-14T01:00:12;96773.75;;;5.53;100.00
10824;BME280;39116;59.332;18.034;2023-03-14T01:02:34;96784.84;;;5.55;100.00
10824;BME280;39116;59.332;18.034;2023-03-14T01:04:57;96770.81;;;5.62;100.00
10824;BME280;39116;59.332;18.034;2023-03-14T01:07:19;96762.31;;;5.60;100.00
10824;BME280;39116;59.332;18.034;2023-03-14T01:09:41;96775.03;;;5.65;100.00
10824;BME280;39116;59.332;18.034;2023-03-14T01:12:03;96772.72;;;5.57;100.00
10824;BME280;39116;59.332;18.034;2023-03-14T01:14:25;96778.66;;;5.59;100.00
10824;BME280;39116;59.332;18.034;2023-03-14T01:16:47;96777.66;;;5.63;100.00
10824;BME280;39116;59.332;18.034;2023-03-14T01:19:09;96767.13;;;5.69;100.00
10824;BME280;39116;59.332;18.034;2023-03-14T01:21:34;96779.25;;;5.67;100.00
10824;BME280;39116;59.332;18.034;2023-03-14T01:23:57;96699.75;;;5.30;100.00
10824;BME280;39116;59.332;18.034;2023-03-14T01:26:21;96757.19;;;5.59;100.00
10824;BME280;39116;59.332;18.034;2023-03-14T01:28:44;96770.94;;;5.59;100.00
10824;BME280;39116;59.332;18.034;2023-03-14T01:31:07;96771.16;;;5.53;100.00
10824;BME280;39116;59.332;18.034;2023-03-14T01:33:30;96777.78;;;5.60;100.00
10824;BME280;39116;59.332;18.034;2023-03-14T01:35:52;96767.56;;;5.57;100.00
10824;BME280;39116;59.332;18.034;2023-03-14T01:38:15;96773.41;;;5.62;100.00
10824;BME280;39116;59.332;18.034;2023-03-14T01:40:42;96776.63;;;5.69;100.00
10824;BME280;39116;59.332;18.034;2023-03-14T01:43:12;96783.41;;;5.71;100.00
10824;BME280;39116;59.332;18.034;2023-03-14T01:48:44;96772.28;;;5.69;100.00
10824;BME280;39116;59.332;18.034;2023-03-14T01:51:11;96781.69;;;5.70;100.00
10824;BME280;39116;59.332;18.034;2023-03-14T01:53:37;96781.88;;;5.66;100.00
10824;BME280;39116;59.332;18.034;2023-03-14T01:56:01;96775.34;;;5.55;100.00
10824;BME280;39116;59.332;18.034;2023-03-14T01:58:25;96785.47;;;5.62;100.00
10824;BME280;39116;59.332;18.034;2023-03-14T02:00:49;96796.72;;;5.59;100.00
10824;BME280;39116;59.332;18.034;2023-03-14T02:03:14;96770.53;;;5.46;100.00
10824;BME280;39116;59.332;18.034;2023-03-14T02:05:40;96795.50;;;5.69;100.00
10824;BME280;39116;59.332;18.034;2023-03-14T02:08:06;96808.63;;;5.63;100.00
10824;BME280;39116;59.332;18.034;2023-03-14T02:10:31;96833.25;;;5.72;100.00
10824;BME280;39116;59.332;18.034;2023-03-14T02:12:55;96822.97;;;5.70;100.00
10824;BME280;39116;59.332;18.034;2023-03-14T02:15:18;96828.03;;;5.73;100.00
10824;BME280;39116;59.332;18.034;2023-03-14T02:17:41;96833.25;;;5.72;100.00
10824;BME280;39116;59.332;18.034;2023-03-14T02:20:13;96846.28;;;5.69;100.00
10824;BME280;39116;59.332;18.034;2023-03-14T02:22:40;96827.69;;;5.59;100.00
10824;BME280;39116;59.332;18.034;2023-03-14T02:25:08;96824.00;;;5.66;100.00
10824;BME280;39116;59.332;18.034;2023-03-14T02:27:32;96833.38;;;5.69;100.00
10824;BME280;39116;59.332;18.034;2023-03-14T02:29:57;96838.47;;;5.70;100.00
10824;BME280;39116;59.332;18.034;2023-03-14T02:32:22;96828.16;;;5.70;100.00
10824;BME280;39116;59.332;18.034;2023-03-14T02:34:48;96837.69;;;5.68;100.00
10824;BME280;39116;59.332;18.034;2023-03-14T02:37:11;96837.81;;;5.65;100.00
10824;BME280;39116;59.332;18.034;2023-03-14T02:39:37;96719.38;;;5.09;100.00
10824;BME280;39116;59.332;18.034;2023-03-14T02:42:00;96848.63;;;5.75;100.00
10824;BME280;39116;59.332;18.034;2023-03-14T02:44:23;96854.81;;;5.71;100.00
10824;BME280;39116;59.332;18.034;2023-03-14T02:46:45;96858.13;;;5.74;100.00
10824;BME280;39116;59.332;18.034;2023-03-14T02:49:08;96859.00;;;5.73;100.00
10824;BME280;39116;59.332;18.034;2023-03-14T02:51:32;96855.59;;;5.73;100.00
10824;BME280;39116;59.332;18.034;2023-03-14T02:53:54;96866.75;;;5.73;100.00
10824;BME280;39116;59.332;18.034;2023-03-14T02:56:16;96868.53;;;5.71;100.00
10824;BME280;39116;59.332;18.034;2023-03-14T02:58:38;96862.28;;;5.79;100.00
10824;BME280;39116;59.332;18.034;2023-03-14T03:01:02;96862.97;;;5.84;100.00
10824;BME280;39116;59.332;18.034;2023-03-14T03:03:24;96856.44;;;5.73;100.00
10824;BME280;39116;59.332;18.034;2023-03-14T03:05:48;96860.44;;;5.82;100.00
10824;BME280;39116;59.332;18.034;2023-03-14T03:08:10;96870.03;;;5.79;100.00
10824;BME280;39116;59.332;18.034;2023-03-14T03:10:32;96868.16;;;5.82;100.00
10824;BME280;39116;59.332;18.034;2023-03-14T03:12:54;96842.09;;;5.65;100.00
10824;BME280;39116;59.332;18.034;2023-03-14T03:15:16;96836.63;;;5.49;100.00
10824;BME280;39116;59.332;18.034;2023-03-14T03:17:40;96830.44;;;5.54;100.00
10824;BME280;39116;59.332;18.034;2023-03-14T03:20:02;96852.97;;;5.74;100.00
10824;BME280;39116;59.332;18.034;2023-03-14T03:22:25;96856.22;;;5.80;100.00
10824;BME280;39116;59.332;18.034;2023-03-14T03:24:48;96862.22;;;5.80;100.00
10824;BME280;39116;59.332;18.034;2023-03-14T03:27:10;96884.88;;;5.72;100.00
10824;BME280;39116;59.332;18.034;2023-03-14T03:29:32;96893.38;;;5.74;100.00
10824;BME280;39116;59.332;18.034;2023-03-14T03:31:54;96876.97;;;5.77;100.00
10824;BME280;39116;59.332;18.034;2023-03-14T03:34:18;96879.47;;;5.80;100.00
10824;BME280;39116;59.332;18.034;2023-03-14T03:36:40;96860.84;;;5.70;100.00
10824;BME280;39116;59.332;18.034;2023-03-14T03:39:02;96902.56;;;5.83;100.00
10824;BME280;39116;59.332;18.034;2023-03-14T03:41:25;96894.72;;;5.86;100.00
10824;BME280;39116;59.332;18.034;2023-03-14T03:43:47;96883.38;;;5.90;100.00
10824;BME280;39116;59.332;18.034;2023-03-14T03:46:09;96884.16;;;5.92;100.00
10824;BME280;39116;59.332;18.034;2023-03-14T03:48:31;96889.22;;;5.97;100.00
10824;BME280;39116;59.332;18.034;2023-03-14T03:50:54;96884.16;;;5.92;100.00
10824;BME280;39116;59.332;18.034;2023-03-14T03:53:16;96873.28;;;5.84;100.00
10824;BME280;39116;59.332;18.034;2023-03-14T03:55:40;96839.56;;;5.63;100.00
10824;BME280;39116;59.332;18.034;2023-03-14T03:58:02;96878.22;;;5.90;100.00
10824;BME280;39116;59.332;18.034;2023-03-14T04:00:24;96894.63;;;5.89;100.00
10824;BME280;39116;59.332;18.034;2023-03-14T04:02:46;96881.81;;;5.86;100.00
10824;BME280;39116;59.332;18.034;2023-03-14T04:05:08;96889.41;;;5.90;100.00
10824;BME280;39116;59.332;18.034;2023-03-14T04:07:33;96896.13;;;5.95;100.00
10824;BME280;39116;59.332;18.034;2023-03-14T04:09:54;96900.56;;;5.91;100.00
10824;BME280;39116;59.332;18.034;2023-03-14T04:12:16;96890.28;;;5.89;100.00
10824;BME280;39116;59.332;18.034;2023-03-14T04:14:38;96907.41;;;5.92;100.00
10824;BME280;39116;59.332;18.034;2023-03-14T04:17:01;96940.16;;;5.90;100.00
10824;BME280;39116;59.332;18.034;2023-03-14T04:19:23;96882.69;;;5.85;100.00
10824;BME280;39116;59.332;18.034;2023-03-14T04:21:45;96883.38;;;5.90;100.00
10824;BME280;39116;59.332;18.034;2023-03-14T04:24:08;96881.72;;;5.89;100.00
10824;BME280;39116;59.332;18.034;2023-03-14T04:26:30;96894.72;;;5.86;100.00
10824;BME280;39116;59.332;18.034;2023-03-14T04:28:52;96889.88;;;5.77;100.00
10824;BME280;39116;59.332;18.034;2023-03-14T04:31:16;96895.81;;;5.79;100.00
10824;BME280;39116;59.332;18.034;2023-03-14T04:33:39;96785.03;;;4.98;100.00
10824;BME280;39116;59.332;18.034;2023-03-14T04:36:00;96899.41;;;5.74;100.00
10824;BME280;39116;59.332;18.034;2023-03-14T04:38:22;96902.88;;;5.73;100.00
10824;BME280;39116;59.332;18.034;2023-03-14T04:40:46;96910.53;;;5.77;100.00
10824;BME280;39116;59.332;18.034;2023-03-14T04:43:08;96917.88;;;5.62;100.00
10824;BME280;39116;59.332;18.034;2023-03-14T04:45:31;96925.53;;;5.65;100.00
10824;BME280;39116;59.332;18.034;2023-03-14T04:47:53;96931.50;;;5.67;100.00
10824;BME280;39116;59.332;18.034;2023-03-14T04:50:15;96932.84;;;5.78;100.00
10824;BME280;39116;59.332;18.034;2023-03-14T04:52:37;96931.34;;;5.70;100.00
10824;BME280;39116;59.332;18.034;2023-03-14T04:54:59;96938.34;;;5.67;100.00
10824;BME280;39116;59.332;18.034;2023-03-14T04:57:22;96936.66;;;5.67;100.00
10824;BME280;39116;59.332;18.034;2023-03-14T04:59:44;96933.28;;;5.65;100.00
10824;BME280;39116;59.332;18.034;2023-03-14T05:02:06;96936.03;;;5.59;100.00
10824;BME280;39116;59.332;18.034;2023-03-14T05:04:29;96931.66;;;5.61;100.00
10824;BME280;39116;59.332;18.034;2023-03-14T05:06:53;96956.50;;;5.65;100.00
10824;BME280;39116;59.332;18.034;2023-03-14T05:09:15;96961.66;;;5.65;100.00
10824;BME280;39116;59.332;18.034;2023-03-14T05:11:37;96896.38;;;5.37;100.00
10824;BME280;39116;59.332;18.034;2023-03-14T05:14:00;96914.22;;;5.43;100.00
10824;BME280;39116;59.332;18.034;2023-03-14T05:16:22;96954.88;;;5.61;100.00
10824;BME280;39116;59.332;18.034;2023-03-14T05:18:44;96997.81;;;5.64;100.00
10824;BME280;39116;59.332;18.034;2023-03-14T05:21:06;96984.28;;;5.57;100.00
10824;BME280;39116;59.332;18.034;2023-03-14T05:23:28;96965.31;;;5.31;100.00
10824;BME280;39116;59.332;18.034;2023-03-14T05:25:50;97006.00;;;5.50;100.00
10824;BME280;39116;59.332;18.034;2023-03-14T05:28:12;97000.94;;;5.47;100.00
10824;BME280;39116;59.332;18.034;2023-03-14T05:30:35;97006.88;;;5.49;100.00
10824;BME280;39116;59.332;18.034;2023-03-14T05:32:57;97008.28;;;5.59;100.00
10824;BME280;39116;59.332;18.034;2023-03-14T05:35:19;97006.88;;;5.49;100.00
10824;BME280;39116;59.332;18.034;2023-03-14T05:37:41;97004.47;;;5.44;100.00
10824;BME280;39116;59.332;18.034;2023-03-14T05:40:04;97009.53;;;5.47;100.00
10824;BME280;39116;59.332;18.034;2023-03-14T05:42:26;97026.75;;;5.45;100.00
10824;BME280;39116;59.332;18.034;2023-03-14T05:44:48;97030.16;;;5.47;100.00
10824;BME280;39116;59.332;18.034;2023-03-14T05:47:11;97002.66;;;5.18;100.00
10824;BME280;39116;59.332;18.034;2023-03-14T05:49:33;97041.50;;;5.42;100.00
10824;BME280;39116;59.332;18.034;2023-03-14T05:51:55;96928.69;;;4.64;100.00
10824;BME280;39116;59.332;18.034;2023-03-14T05:54:17;97050.22;;;5.38;100.00
10824;BME280;39116;59.332;18.034;2023-03-14T05:56:39;97050.38;;;5.33;100.00
10824;BME280;39116;59.332;18.034;2023-03-14T05:59:01;97067.41;;;5.39;100.00
10824;BME280;39116;59.332;18.034;2023-03-14T06:01:23;97076.09;;;5.34;100.00
10824;BME280;39116;59.332;18.034;2023-03-14T06:03:47;97077.00;;;5.33;100.00
10824;BME280;39116;59.332;18.034;2023-03-14T06:06:08;97085.84;;;5.25;100.00
10824;BME280;39116;59.332;18.034;2023-03-14T06:08:30;97078.88;;;5.28;100.00
10824;BME280;39116;59.332;18.034;2023-03-14T06:10:52;97068.59;;;5.27;100.00
10824;BME280;39116;59.332;18.034;2023-03-14T06:13:14;97082.28;;;5.29;100.00
10824;BME280;39116;59.332;18.034;2023-03-14T06:15:36;97069.53;;;5.24;100.00
10824;BME280;39116;59.332;18.034;2023-03-14T06:17:58;97094.56;;;5.21;100.00
10824;BME280;39116;59.332;18.034;2023-03-14T06:20:22;97103.88;;;5.26;100.00
10824;BME280;39116;59.332;18.034;2023-03-14T06:22:44;97111.44;;;5.31;100.00
10824;BME280;39116;59.332;18.034;2023-03-14T06:25:06;97084.56;;;5.10;100.00
10824;BME280;39116;59.332;18.034;2023-03-14T06:27:28;97118.53;;;5.24;100.00
10824;BME280;39116;59.332;18.034;2023-03-14T06:29:51;97131.44;;;5.24;100.00
10824;BME280;39116;59.332;18.034;2023-03-14T06:32:12;97116.19;;;5.15;100.00
10824;BME280;39116;59.332;18.034;2023-03-14T06:34:34;97141.75;;;5.24;100.00
10824;BME280;39116;59.332;18.034;2023-03-14T06:36:58;97141.75;;;5.24;100.00
10824;BME280;39116;59.332;18.034;2023-03-14T06:39:20;97134.72;;;5.29;100.00
10824;BME280;39116;59.332;18.034;2023-03-14T06:41:41;97145.38;;;5.17;100.00
10824;BME280;39116;59.332;18.034;2023-03-14T06:44:04;97147.31;;;5.09;100.00
10824;BME280;39116;59.332;18.034;2023-03-14T06:46:26;97137.09;;;5.06;100.00
10824;BME280;39116;59.332;18.034;2023-03-14T06:48:48;97157.56;;;5.12;100.00
10824;BME280;39116;59.332;18.034;2023-03-14T06:51:10;97157.44;;;5.15;100.00
10824;BME280;39116;59.332;18.034;2023-03-14T06:53:33;97154.84;;;5.16;100.00
10824;BME280;39116;59.332;18.034;2023-03-14T06:55:55;97173.56;;;5.23;100.00
10824;BME280;39116;59.332;18.034;2023-03-14T06:58:17;97185.72;;;5.18;100.00
10824;BME280;39116;59.332;18.034;2023-03-14T07:00:39;97197.81;;;5.16;100.00
10824;BME280;39116;59.332;18.034;2023-03-14T07:03:01;97194.31;;;5.19;100.00
10824;BME280;39116;59.332;18.034;2023-03-14T07:05:23;97188.97;;;5.26;100.00
10824;BME280;39116;59.332;18.034;2023-03-14T07:07:45;97205.56;;;5.16;100.00
10824;BME280;39116;59.332;18.034;2023-03-14T07:10:10;97220.28;;;5.12;100.00
10824;BME280;39116;59.332;18.034;2023-03-14T07:12:32;97093.44;;;4.35;100.00
10824;BME280;39116;59.332;18.034;2023-03-14T07:14:54;97216.19;;;5.04;100.00
10824;BME280;39116;59.332;18.034;2023-03-14T07:17:15;97234.28;;;5.02;100.00
10824;BME280;39116;59.332;18.034;2023-03-14T07:19:38;97240.19;;;5.06;100.00
10824;BME280;39116;59.332;18.034;2023-03-14T07:22:00;97249.88;;;4.97;100.00
10824;BME280;39116;59.332;18.034;2023-03-14T07:24:22;97238.59;;;5.02;100.00
10824;BME280;39116;59.332;18.034;2023-03-14T07:26:45;97243.72;;;5.03;100.00
10824;BME280;39116;59.332;18.034;2023-03-14T07:29:07;97251.75;;;4.91;100.00
10824;BME280;39116;59.332;18.034;2023-03-14T07:31:29;97253.31;;;4.96;100.00
10824;BME280;39116;59.332;18.034;2023-03-14T07:33:51;97256.75;;;4.97;100.00
10824;BME280;39116;59.332;18.034;2023-03-14T07:36:13;97267.69;;;5.07;100.00
10824;BME280;39116;59.332;18.034;2023-03-14T07:38:35;97276.22;;;5.09;100.00
10824;BME280;39116;59.332;18.034;2023-03-14T07:40:58;97261.88;;;4.98;100.00
10824;BME280;39116;59.332;18.034;2023-03-14T07:43:22;97272.63;;;5.14;100.00
10824;BME280;39116;59.332;18.034;2023-03-14T07:45:45;97272.53;;;5.19;100.00
10824;BME280;39116;59.332;18.034;2023-03-14T07:48:07;97287.00;;;5.25;100.00
10824;BME280;39116;59.332;18.034;2023-03-14T07:50:30;97288.84;;;5.20;100.00
10824;BME280;39116;59.332;18.034;2023-03-14T07:52:53;97285.91;;;5.33;100.00
10824;BME280;39116;59.332;18.034;2023-03-14T07:55:15;97292.16;;;5.56;100.00
10824;BME280;39116;59.332;18.034;2023-03-14T07:57:37;97254.44;;;5.52;100.00
10824;BME280;39116;59.332;18.034;2023-03-14T08:00:00;97289.06;;;5.43;100.00
10824;BME280;39116;59.332;18.034;2023-03-14T08:02:23;97225.94;;;5.25;100.00
10824;BME280;39116;59.332;18.034;2023-03-14T08:04:45;97303.97;;;5.65;100.00
10824;BME280;39116;59.332;18.034;2023-03-14T08:07:07;97309.41;;;5.87;100.00
10824;BME280;39116;59.332;18.034;2023-03-14T08:09:29;97304.41;;;5.81;100.00
10824;BME280;39116;59.332;18.034;2023-03-14T08:11:51;97299.56;;;6.01;100.00
10824;BME280;39116;59.332;18.034;2023-03-14T08:14:13;97295.22;;;6.03;100.00
10824;BME280;39116;59.332;18.034;2023-03-14T08:16:36;97185.84;;;5.45;100.00
10824;BME280;39116;59.332;18.034;2023-03-14T08:18:58;97309.97;;;5.98;100.00
10824;BME280;39116;59.332;18.034;2023-03-14T08:21:20;97305.88;;;6.21;100.00
10824;BME280;39116;59.332;18.034;2023-03-14T08:23:42;97318.16;;;5.81;100.00
10824;BME280;39116;59.332;18.034;2023-03-14T08:26:04;97341.34;;;5.83;100.00
10824;BME280;39116;59.332;18.034;2023-03-14T08:28:26;97347.63;;;5.40;100.00
10824;BME280;39116;59.332;18.034;2023-03-14T08:30:51;97361.09;;;5.16;100.00
10824;BME280;39116;59.332;18.034;2023-03-14T08:33:14;97342.50;;;5.04;100.00
10824;BME280;39116;59.332;18.034;2023-03-14T08:35:37;97357.69;;;5.16;100.00
10824;BME280;39116;59.332;18.034;2023-03-14T08:37:59;97352.94;;;4.99;100.00
10824;BME280;39116;59.332;18.034;2023-03-14T08:40:21;97371.03;;;4.97;100.00
10824;BME280;39116;59.332;18.034;2023-03-14T08:42:43;97384.84;;;4.93;100.00
10824;BME280;39116;59.332;18.034;2023-03-14T08:45:07;97373.09;;;4.83;100.00
10824;BME280;39116;59.332;18.034;2023-03-14T08:47:29;97360.84;;;4.91;100.00
10824;BME280;39116;59.332;18.034;2023-03-14T08:49:52;97352.25;;;4.92;100.00
10824;BME280;39116;59.332;18.034;2023-03-14T08:52:14;97359.00;;;4.96;100.00
10824;BME280;39116;59.332;18.034;2023-03-14T08:54:36;97366.63;;;5.03;100.00
10824;BME280;39116;59.332;18.034;2023-03-14T08:56:58;97359.91;;;4.95;100.00
10824;BME280;39116;59.332;18.034;2023-03-14T08:59:20;97368.56;;;4.91;100.00
10824;BME280;39116;59.332;18.034;2023-03-14T09:01:42;97363.56;;;4.87;100.00
10824;BME280;39116;59.332;18.034;2023-03-14T09:04:04;97370.13;;;4.98;100.00
10824;BME280;39116;59.332;18.034;2023-03-14T09:06:28;97360.00;;;4.91;100.00
10824;BME280;39116;59.332;18.034;2023-03-14T09:08:50;97365.44;;;4.78;100.00
10824;BME280;39116;59.332;18.034;2023-03-14T09:11:13;97353.91;;;4.93;100.00
10824;BME280;39116;59.332;18.034;2023-03-14T09:13:35;97352.94;;;4.99;100.00
10824;BME280;39116;59.332;18.034;2023-03-14T09:15:57;97344.50;;;5.28;100.00
10824;BME280;39116;59.332;18.034;2023-03-14T09:18:19;97339.09;;;5.03;100.00
10824;BME280;39116;59.332;18.034;2023-03-14T09:20:41;97363.34;;;5.30;100.00
10824;BME280;39116;59.332;18.034;2023-03-14T09:23:04;97352.13;;;5.33;100.00
10824;BME280;39116;59.332;18.034;2023-03-14T09:25:26;97355.28;;;5.44;100.00
10824;BME280;39116;59.332;18.034;2023-03-14T09:27:48;97314.22;;;5.01;100.00
10824;BME280;39116;59.332;18.034;2023-03-14T09:30:11;97356.19;;;5.42;100.00
10824;BME280;39116;59.332;18.034;2023-03-14T09:32:33;97358.59;;;5.49;100.00
10824;BME280;39116;59.332;18.034;2023-03-14T09:34:55;97363.28;;;5.66;100.00
10824;BME280;39116;59.332;18.034;2023-03-14T09:37:17;97378.41;;;5.80;100.00
10824;BME280;39116;59.332;18.034;2023-03-14T09:39:41;97389.78;;;5.73;100.00
10824;BME280;39116;59.332;18.034;2023-03-14T09:42:06;97382.56;;;5.86;100.00
10824;BME280;39116;59.332;18.034;2023-03-14T09:44:32;97381.88;;;5.79;100.00
10824;BME280;39116;59.332;18.034;2023-03-14T09:46:57;97384.50;;;5.78;100.00
10824;BME280;39116;59.332;18.034;2023-03-14T09:49:23;97400.44;;;5.61;100.00
10824;BME280;39116;59.332;18.034;2023-03-14T09:51:47;97402.63;;;5.76;100.00
10824;BME280;39116;59.332;18.034;2023-03-14T09:54:23;97399.56;;;5.62;100.00
10824;BME280;39116;59.332;18.034;2023-03-14T09:56:49;97400.19;;;5.70;100.00
10824;BME280;39116;59.332;18.034;2023-03-14T09:59:12;97407.44;;;5.88;100.00
10824;BME280;39116;59.332;18.034;2023-03-14T10:01:35;97398.69;;;5.61;100.00
10824;BME280;39116;59.332;18.034;2023-03-14T10:03:59;97416.38;;;5.77;100.00
10824;BME280;39116;59.332;18.034;2023-03-14T10:06:24;97409.00;;;5.61;100.00
10824;BME280;39116;59.332;18.034;2023-03-14T10:08:47;97421.50;;;5.44;100.00
10824;BME280;39116;59.332;18.034;2023-03-14T10:11:14;97430.25;;;5.72;100.00
10824;BME280;39116;59.332;18.034;2023-03-14T10:13:47;97438.69;;;5.43;100.00
10824;BME280;39116;59.332;18.034;2023-03-14T10:16:10;97429.13;;;5.48;100.00
10824;BME280;39116;59.332;18.034;2023-03-14T10:18:32;97370.66;;;5.13;100.00
10824;BME280;39116;59.332;18.034;2023-03-14T10:21:04;97436.59;;;5.59;100.00
10824;BME280;39116;59.332;18.034;2023-03-14T10:23:28;97329.84;;;4.94;100.00
10824;BME280;39116;59.332;18.034;2023-03-14T10:26:00;97455.41;;;5.63;100.00
10824;BME280;39116;59.332;18.034;2023-03-14T10:28:26;97448.50;;;5.63;100.00
10824;BME280;39116;59.332;18.034;2023-03-14T10:30:51;97455.84;;;5.46;100.00
10824;BME280;39116;59.332;18.034;2023-03-14T10:33:21;97453.47;;;5.72;100.00
10824;BME280;39116;59.332;18.034;2023-03-14T10:35:44;97447.69;;;5.97;100.00
10824;BME280;39116;59.332;18.034;2023-03-14T10:38:13;97439.28;;;5.89;100.00
10824;BME280;39116;59.332;18.034;2023-03-14T10:40:38;97444.94;;;6.05;100.00
10824;BME280;39116;59.332;18.034;2023-03-14T10:43:04;97444.81;;;6.08;100.00
10824;BME280;39116;59.332;18.034;2023-03-14T10:45:33;97446.84;;;6.28;100.00
10824;BME280;39116;59.332;18.034;2023-03-14T10:47:58;97453.81;;;6.26;100.00
10824;BME280;39116;59.332;18.034;2023-03-14T10:50:26;97452.38;;;6.16;100.00
10824;BME280;39116;59.332;18.034;2023-03-14T10:52:49;97458.72;;;6.35;100.00
10824;BME280;39116;59.332;18.034;2023-03-14T10:55:12;97459.88;;;6.25;100.00
10824;BME280;39116;59.332;18.034;2023-03-14T10:57:38;97458.31;;;6.50;100.00
10824;BME280;39116;59.332;18.034;2023-03-14T11:00:00;97451.94;;;6.31;100.00
10824;BME280;39116;59.332;18.034;2023-03-14T11:02:39;97473.97;;;5.79;100.00
10824;BME280;39116;59.332;18.034;2023-03-14T11:05:18;97478.44;;;6.06;100.00
10824;BME280;39116;59.332;18.034;2023-03-14T11:07:44;97481.91;;;6.05;100.00
10824;BME280;39116;59.332;18.034;2023-03-14T11:10:15;97484.22;;;5.82;100.00
10824;BME280;39116;59.332;18.034;2023-03-14T11:12:46;97483.44;;;5.78;100.00
10824;BME280;39116;59.332;18.034;2023-03-14T11:15:17;97483.69;;;6.03;100.00
10824;BME280;39116;59.332;18.034;2023-03-14T11:17:46;97489.69;;;6.04;100.00
10824;BME280;39116;59.332;18.034;2023-03-14T11:20:25;97383.84;;;5.37;100.00
10824;BME280;39116;59.332;18.034;2023-03-14T11:22:56;97494.06;;;6.02;100.00
10824;BME280;39116;59.332;18.034;2023-03-14T11:25:26;97493.50;;;5.53;100.00
10824;BME280;39116;59.332;18.034;2023-03-14T11:27:57;97467.25;;;5.35;100.00
10824;BME280;39116;59.332;18.034;2023-03-14T11:30:27;97503.53;;;5.65;100.00
10824;BME280;39116;59.332;18.034;2023-03-14T11:32:56;97512.09;;;5.67;100.00
10824;BME280;39116;59.332;18.034;2023-03-14T11:35:28;97503.97;;;5.47;100.00
10824;BME280;39116;59.332;18.034;2023-03-14T11:37:54;97504.84;;;5.47;100.00
10824;BME280;39116;59.332;18.034;2023-03-14T11:40:19;97495.28;;;5.51;100.00
10824;BME280;39116;59.332;18.034;2023-03-14T11:42:43;97510.53;;;5.60;100.00
10824;BME280;39116;59.332;18.034;2023-03-14T11:45:14;97517.34;;;5.63;100.00
10824;BME280;39116;59.332;18.034;2023-03-14T11:47:41;97524.56;;;5.84;100.00
10824;BME280;39116;59.332;18.034;2023-03-14T11:50:06;97515.72;;;5.96;100.00
10824;BME280;39116;59.332;18.034;2023-03-14T11:52:33;97463.06;;;5.67;100.00
10824;BME280;39116;59.332;18.034;2023-03-14T11:54:58;97515.03;;;5.88;100.00
10824;BME280;39116;59.332;18.034;2023-03-14T11:57:22;97388.03;;;5.05;100.00
10824;BME280;39116;59.332;18.034;2023-03-14T11:59:50;97533.25;;;5.82;100.00
10824;BME280;39116;59.332;18.034;2023-03-14T12:02:21;97541.22;;;5.72;100.00
10824;BME280;39116;59.332;18.034;2023-03-14T12:04:53;97551.91;;;5.57;100.00
10824;BME280;39116;59.332;18.034;2023-03-14T12:07:19;97551.69;;;5.66;100.00
10824;BME280;39116;59.332;18.034;2023-03-14T12:09:43;97548.44;;;5.58;100.00
10824;BME280;39116;59.332;18.034;2023-03-14T12:12:06;97552.50;;;5.67;100.00
10824;BME280;39116;59.332;18.034;2023-03-14T12:14:35;97532.28;;;5.50;100.00
10824;BME280;39116;59.332;18.034;2023-03-14T12:17:04;97460.13;;;5.08;100.00
10824;BME280;39116;59.332;18.034;2023-03-14T12:19:35;97558.53;;;5.67;100.00
10824;BME280;39116;59.332;18.034;2023-03-14T12:22:19;97554.94;;;5.74;100.00
10824;BME280;39116;59.332;18.034;2023-03-14T12:24:48;97554.22;;;5.68;100.00
10824;BME280;39116;59.332;18.034;2023-03-14T12:27:13;97525.47;;;5.47;100.00
10824;BME280;39116;59.332;18.034;2023-03-14T12:29:59;97566.69;;;5.49;100.00
10824;BME280;39116;59.332;18.034;2023-03-14T12:32:22;97564.25;;;5.43;100.00
10824;BME280;39116;59.332;18.034;2023-03-14T12:34:45;97559.91;;;5.45;100.00